createdAt,value
2018-07-10T00:00:07.650Z,58.74
2018-07-10T00:00:33.218Z,59.03
2018-07-10T00:00:58.796Z,59.23
2018-07-10T00:01:24.353Z,58.74
2018-07-10T00:01:49.943Z,58.65
2018-07-10T00:02:15.496Z,58.84
2018-07-10T00:02:41.096Z,58.74
2018-07-10T00:03:06.666Z,58.74
2018-07-10T00:03:32.238Z,58.55
2018-07-10T00:03:57.812Z,58.65
2018-07-10T00:04:23.373Z,58.84
2018-07-10T00:04:48.940Z,58.84
2018-07-10T00:05:14.497Z,59.03
2018-07-10T00:05:40.072Z,59.03
2018-07-10T00:06:05.647Z,58.84
2018-07-10T00:06:31.246Z,58.55
2018-07-10T00:06:56.811Z,58.94
2018-07-10T00:07:22.395Z,58.84
2018-07-10T00:07:47.977Z,58.94
2018-07-10T00:08:13.566Z,58.65
2018-07-10T00:08:39.112Z,58.94
2018-07-10T00:09:04.686Z,59.03
2018-07-10T00:09:30.268Z,58.94
2018-07-10T00:09:55.832Z,58.84
2018-07-10T00:10:21.419Z,59.13
2018-07-10T00:10:47.017Z,58.26
2018-07-10T00:11:12.584Z,58.74
2018-07-10T00:11:38.162Z,59.13
2018-07-10T00:12:03.709Z,59.03
2018-07-10T00:12:29.277Z,58.94
2018-07-10T00:12:54.864Z,58.94
2018-07-10T00:13:20.438Z,58.65
2018-07-10T00:13:46.014Z,58.65
2018-07-10T00:14:11.614Z,58.65
2018-07-10T00:14:37.176Z,58.74
2018-07-10T00:15:02.754Z,59.03
2018-07-10T00:15:28.323Z,58.94
2018-07-10T00:15:53.884Z,58.94
2018-07-10T00:16:19.495Z,59.03
2018-07-10T00:16:45.081Z,59.03
2018-07-10T00:17:10.647Z,59.03
2018-07-10T00:17:36.235Z,59.03
2018-07-10T00:18:01.804Z,59.03
2018-07-10T00:18:27.403Z,59.03
2018-07-10T00:18:52.975Z,58.94
2018-07-10T00:19:18.543Z,58.94
2018-07-10T00:19:44.108Z,58.84
2018-07-10T00:20:09.755Z,58.84
2018-07-10T00:20:35.314Z,59.03
2018-07-10T00:21:00.897Z,59.03
2018-07-10T00:21:26.459Z,58.84
2018-07-10T00:21:52.018Z,59.03
2018-07-10T00:22:17.622Z,59.03
2018-07-10T00:22:43.197Z,58.94
2018-07-10T00:23:08.784Z,58.94
2018-07-10T00:23:34.366Z,58.94
2018-07-10T00:23:59.924Z,59.03
2018-07-10T00:24:25.545Z,58.94
2018-07-10T00:24:51.121Z,59.03
2018-07-10T00:25:16.688Z,59.03
2018-07-10T00:25:42.277Z,59.03
2018-07-10T00:26:07.861Z,58.94
2018-07-10T00:26:33.429Z,59.03
2018-07-10T00:26:58.987Z,58.94
2018-07-10T00:27:24.598Z,58.94
2018-07-10T00:27:50.163Z,59.03
2018-07-10T00:28:15.736Z,59.03
2018-07-10T00:28:41.303Z,59.03
2018-07-10T00:29:06.896Z,58.94
2018-07-10T00:29:32.466Z,58.84
2018-07-10T00:29:58.034Z,59.03
2018-07-10T00:30:23.611Z,59.13
2018-07-10T00:30:49.206Z,58.94
2018-07-10T00:31:14.791Z,59.03
2018-07-10T00:31:40.355Z,58.94
2018-07-10T00:32:05.928Z,59.03
2018-07-10T00:32:31.507Z,59.13
2018-07-10T00:32:57.085Z,59.03
2018-07-10T00:33:22.679Z,59.03
2018-07-10T00:33:48.245Z,59.03
2018-07-10T00:34:13.812Z,59.13
2018-07-10T00:34:39.377Z,58.94
2018-07-10T00:35:04.946Z,58.84
2018-07-10T00:35:30.525Z,59.03
2018-07-10T00:35:56.104Z,59.13
2018-07-10T00:36:21.673Z,58.84
2018-07-10T00:36:47.224Z,58.94
2018-07-10T00:37:12.780Z,59.03
2018-07-10T00:37:38.375Z,58.94
2018-07-10T00:38:03.928Z,59.03
2018-07-10T00:38:29.499Z,59.13
2018-07-10T00:38:55.219Z,59.03
2018-07-10T00:39:20.852Z,59.13
2018-07-10T00:39:46.443Z,58.84
2018-07-10T00:40:12.016Z,59.13
2018-07-10T00:40:37.573Z,58.55
2018-07-10T00:41:03.153Z,58.94
2018-07-10T00:41:28.723Z,59.03
2018-07-10T00:41:54.292Z,59.03
2018-07-10T00:42:19.884Z,58.55
2018-07-10T00:42:45.467Z,59.03
2018-07-10T00:43:11.052Z,59.03
2018-07-10T00:43:36.622Z,58.65
2018-07-10T00:44:02.200Z,59.13
2018-07-10T00:44:27.768Z,59.03
2018-07-10T00:44:53.356Z,58.65
2018-07-10T00:45:18.920Z,58.94
2018-07-10T00:45:44.502Z,58.45
2018-07-10T00:46:10.164Z,58.45
2018-07-10T00:46:35.702Z,58.26
2018-07-10T00:47:01.253Z,58.45
2018-07-10T00:47:26.802Z,58.55
2018-07-10T00:47:52.380Z,58.36
2018-07-10T00:48:17.961Z,58.45
2018-07-10T00:48:43.523Z,58.55
2018-07-10T00:49:09.122Z,58.45
2018-07-10T00:49:34.681Z,58.26
2018-07-10T00:50:00.277Z,58.45
2018-07-10T00:50:25.843Z,58.55
2018-07-10T00:50:51.469Z,58.94
2018-07-10T00:51:17.058Z,59.13
2018-07-10T00:51:42.614Z,59.13
2018-07-10T00:52:08.193Z,58.94
2018-07-10T00:52:33.761Z,58.55
2018-07-10T00:52:59.313Z,58.45
2018-07-10T00:53:24.892Z,58.55
2018-07-10T00:53:50.467Z,58.36
2018-07-10T00:54:16.066Z,58.55
2018-07-10T00:54:41.664Z,59.03
2018-07-10T00:55:07.236Z,58.55
2018-07-10T00:55:32.818Z,58.94
2018-07-10T00:55:58.395Z,58.45
2018-07-10T00:56:23.974Z,58.45
2018-07-10T00:56:49.573Z,58.55
2018-07-10T00:57:15.161Z,58.55
2018-07-10T00:57:40.716Z,58.45
2018-07-10T00:58:06.293Z,58.45
2018-07-10T00:58:31.856Z,58.45
2018-07-10T00:58:57.436Z,58.45
2018-07-10T00:59:23.040Z,58.45
2018-07-10T00:59:48.606Z,58.45
2018-07-10T01:00:14.189Z,58.45
2018-07-10T01:00:39.769Z,58.26
2018-07-10T01:01:05.347Z,58.26
2018-07-10T01:01:30.911Z,58.45
2018-07-10T01:01:56.488Z,58.65
2018-07-10T01:02:22.070Z,58.36
2018-07-10T01:02:47.648Z,58.45
2018-07-10T01:03:13.216Z,58.36
2018-07-10T01:03:38.771Z,58.55
2018-07-10T01:04:04.336Z,58.55
2018-07-10T01:04:29.903Z,58.45
2018-07-10T01:04:55.489Z,58.26
2018-07-10T01:05:21.046Z,58.26
2018-07-10T01:05:46.611Z,58.55
2018-07-10T01:06:12.190Z,58.55
2018-07-10T01:06:37.777Z,58.55
2018-07-10T01:07:03.346Z,58.45
2018-07-10T01:07:28.908Z,58.36
2018-07-10T01:07:54.479Z,58.45
2018-07-10T01:08:20.055Z,58.45
2018-07-10T01:08:45.630Z,58.26
2018-07-10T01:09:11.186Z,58.65
2018-07-10T01:09:36.761Z,58.55
2018-07-10T01:10:02.307Z,58.55
2018-07-10T01:10:27.907Z,58.65
2018-07-10T01:10:53.477Z,58.45
2018-07-10T01:11:19.050Z,58.55
2018-07-10T01:11:44.631Z,58.45
2018-07-10T01:12:10.187Z,58.26
2018-07-10T01:12:35.771Z,58.65
2018-07-10T01:13:01.376Z,58.45
2018-07-10T01:13:26.975Z,58.45
2018-07-10T01:13:52.551Z,58.36
2018-07-10T01:14:18.107Z,58.45
2018-07-10T01:14:43.677Z,58.45
2018-07-10T01:15:09.261Z,58.36
2018-07-10T01:15:34.851Z,58.55
2018-07-10T01:16:00.441Z,58.55
2018-07-10T01:16:25.999Z,58.55
2018-07-10T01:16:51.591Z,58.55
2018-07-10T01:17:17.145Z,58.45
2018-07-10T01:17:42.719Z,58.45
2018-07-10T01:18:08.294Z,58.06
2018-07-10T01:18:33.874Z,58.55
2018-07-10T01:18:59.500Z,58.55
2018-07-10T01:19:25.018Z,58.45
2018-07-10T01:19:50.580Z,58.26
2018-07-10T01:20:16.153Z,58.26
2018-07-10T01:20:41.716Z,58.26
2018-07-10T01:21:07.273Z,58.26
2018-07-10T01:21:32.848Z,58.45
2018-07-10T01:21:58.414Z,58.55
2018-07-10T01:22:23.974Z,58.45
2018-07-10T01:22:49.526Z,58.55
2018-07-10T01:23:15.090Z,58.26
2018-07-10T01:23:40.650Z,58.45
2018-07-10T01:24:06.224Z,58.36
2018-07-10T01:24:31.781Z,58.65
2018-07-10T01:24:57.365Z,58.26
2018-07-10T01:25:22.940Z,58.36
2018-07-10T01:25:48.505Z,58.45
2018-07-10T01:26:14.079Z,58.26
2018-07-10T01:26:39.646Z,58.16
2018-07-10T01:27:05.232Z,58.26
2018-07-10T01:27:30.800Z,58.26
2018-07-10T01:27:56.422Z,58.45
2018-07-10T01:28:21.975Z,58.55
2018-07-10T01:28:47.561Z,58.45
2018-07-10T01:29:13.114Z,58.26
2018-07-10T01:29:38.692Z,58.26
2018-07-10T01:30:04.265Z,58.36
2018-07-10T01:30:29.905Z,58.65
2018-07-10T01:30:55.483Z,58.26
2018-07-10T01:31:21.059Z,58.26
2018-07-10T01:31:46.641Z,58.36
2018-07-10T01:32:12.215Z,58.06
2018-07-10T01:32:37.787Z,58.06
2018-07-10T01:33:03.369Z,58.26
2018-07-10T01:33:28.946Z,58.06
2018-07-10T01:33:54.511Z,58.16
2018-07-10T01:34:20.085Z,58.16
2018-07-10T01:34:45.692Z,58.45
2018-07-10T01:35:11.253Z,58.26
2018-07-10T01:35:36.797Z,58.36
2018-07-10T01:36:02.383Z,58.45
2018-07-10T01:36:27.955Z,58.26
2018-07-10T01:36:53.523Z,58.26
2018-07-10T01:37:19.080Z,58.06
2018-07-10T01:37:44.658Z,58.06
2018-07-10T01:38:10.229Z,58.45
2018-07-10T01:38:35.779Z,58.26
2018-07-10T01:39:01.353Z,58.45
2018-07-10T01:39:26.942Z,58.45
2018-07-10T01:39:52.530Z,58.26
2018-07-10T01:40:18.104Z,58.26
2018-07-10T01:40:43.670Z,58.45
2018-07-10T01:41:09.237Z,58.36
2018-07-10T01:41:34.847Z,58.26
2018-07-10T01:42:00.396Z,58.26
2018-07-10T01:42:25.984Z,58.45
2018-07-10T01:42:51.561Z,58.45
2018-07-10T01:43:17.175Z,58.55
2018-07-10T01:43:42.751Z,58.26
2018-07-10T01:44:08.314Z,58.45
2018-07-10T01:44:33.871Z,58.16
2018-07-10T01:44:59.438Z,58.06
2018-07-10T01:45:25.006Z,58.16
2018-07-10T01:45:50.596Z,58.45
2018-07-10T01:46:16.173Z,58.36
2018-07-10T01:46:41.755Z,58.06
2018-07-10T01:47:07.318Z,58.06
2018-07-10T01:47:32.892Z,58.45
2018-07-10T01:47:58.455Z,58.26
2018-07-10T01:48:24.031Z,58.45
2018-07-10T01:48:49.611Z,58.45
2018-07-10T01:49:15.167Z,58.26
2018-07-10T01:49:40.750Z,58.26
2018-07-10T01:50:06.317Z,58.26
2018-07-10T01:50:31.898Z,58.26
2018-07-10T01:50:57.489Z,58.65
2018-07-10T01:51:23.052Z,58.45
2018-07-10T01:51:48.638Z,58.26
2018-07-10T01:52:14.207Z,58.26
2018-07-10T01:52:39.762Z,58.26
2018-07-10T01:53:05.355Z,58.16
2018-07-10T01:53:30.940Z,58.36
2018-07-10T01:53:56.550Z,58.26
2018-07-10T01:54:22.121Z,58.26
2018-07-10T01:54:47.692Z,58.26
2018-07-10T01:55:13.250Z,58.26
2018-07-10T01:55:38.822Z,58.26
2018-07-10T01:56:04.401Z,58.26
2018-07-10T01:56:30.070Z,58.16
2018-07-10T01:56:55.543Z,58.45
2018-07-10T01:57:21.110Z,58.65
2018-07-10T01:57:46.680Z,58.55
2018-07-10T01:58:12.282Z,58.55
2018-07-10T01:58:37.848Z,58.36
2018-07-10T01:59:03.427Z,58.55
2018-07-10T01:59:28.992Z,58.26
2018-07-10T01:59:54.559Z,58.26
2018-07-10T02:00:20.129Z,58.65
2018-07-10T02:00:45.769Z,58.55
2018-07-10T02:01:11.337Z,58.45
2018-07-10T02:01:36.911Z,58.26
2018-07-10T02:02:02.507Z,58.45
2018-07-10T02:02:28.072Z,58.45
2018-07-10T02:02:53.637Z,58.55
2018-07-10T02:03:19.205Z,58.45
2018-07-10T02:03:44.806Z,58.26
2018-07-10T02:04:10.378Z,58.26
2018-07-10T02:04:35.949Z,58.06
2018-07-10T02:05:01.501Z,58.16
2018-07-10T02:05:27.091Z,58.16
2018-07-10T02:05:52.658Z,58.16
2018-07-10T02:06:18.232Z,58.26
2018-07-10T02:06:43.790Z,58.26
2018-07-10T02:07:09.355Z,58.26
2018-07-10T02:07:34.959Z,58.06
2018-07-10T02:08:00.538Z,58.06
2018-07-10T02:08:26.120Z,58.16
2018-07-10T02:08:51.727Z,58.26
2018-07-10T02:09:17.299Z,58.26
2018-07-10T02:09:42.880Z,58.06
2018-07-10T02:10:08.429Z,58.16
2018-07-10T02:10:34.009Z,58.06
2018-07-10T02:10:59.583Z,58.26
2018-07-10T02:11:25.154Z,58.65
2018-07-10T02:11:50.706Z,58.26
2018-07-10T02:12:16.280Z,58.55
2018-07-10T02:12:41.835Z,58.45
2018-07-10T02:13:07.435Z,58.16
2018-07-10T02:13:33.003Z,58.26
2018-07-10T02:13:58.617Z,58.65
2018-07-10T02:14:24.149Z,58.36
2018-07-10T02:14:49.714Z,58.45
2018-07-10T02:15:15.305Z,58.06
2018-07-10T02:15:40.883Z,58.45
2018-07-10T02:16:06.436Z,58.06
2018-07-10T02:16:32.009Z,58.45
2018-07-10T02:16:57.577Z,58.36
2018-07-10T02:17:23.152Z,58.06
2018-07-10T02:17:48.717Z,58.16
2018-07-10T02:18:14.323Z,58.26
2018-07-10T02:18:39.863Z,58.16
2018-07-10T02:19:05.443Z,57.97
2018-07-10T02:19:31.013Z,58.26
2018-07-10T02:19:56.586Z,58.36
2018-07-10T02:20:22.171Z,58.45
2018-07-10T02:20:47.715Z,58.26
2018-07-10T02:21:13.293Z,57.97
2018-07-10T02:21:38.878Z,58.45
2018-07-10T02:22:04.466Z,58.16
2018-07-10T02:22:30.015Z,58.26
2018-07-10T02:22:55.641Z,58.16
2018-07-10T02:23:21.197Z,58.26
2018-07-10T02:23:46.768Z,58.06
2018-07-10T02:24:12.349Z,58.26
2018-07-10T02:24:37.909Z,58.26
2018-07-10T02:25:03.476Z,58.45
2018-07-10T02:25:29.032Z,57.97
2018-07-10T02:25:54.613Z,58.26
2018-07-10T02:26:20.199Z,58.36
2018-07-10T02:26:45.792Z,58.06
2018-07-10T02:27:11.369Z,58.36
2018-07-10T02:27:36.925Z,58.26
2018-07-10T02:28:02.486Z,58.55
2018-07-10T02:28:28.080Z,58.55
2018-07-10T02:28:53.634Z,58.26
2018-07-10T02:29:19.209Z,58.36
2018-07-10T02:29:44.801Z,58.26
2018-07-10T02:30:10.350Z,58.26
2018-07-10T02:30:35.929Z,58.55
2018-07-10T02:31:01.506Z,58.45
2018-07-10T02:31:27.061Z,58.06
2018-07-10T02:31:52.626Z,58.36
2018-07-10T02:32:18.202Z,58.33
2018-07-10T02:32:43.784Z,58.45
2018-07-10T02:33:09.355Z,58.45
2018-07-10T02:33:34.926Z,58.14
2018-07-10T02:34:00.485Z,58.55
2018-07-10T02:34:26.053Z,58.26
2018-07-10T02:34:51.625Z,58.55
2018-07-10T02:35:17.199Z,58.55
2018-07-10T02:35:42.762Z,58.55
2018-07-10T02:36:08.367Z,58.26
2018-07-10T02:36:33.977Z,58.45
2018-07-10T02:36:59.529Z,58.45
2018-07-10T02:37:25.105Z,58.26
2018-07-10T02:37:50.648Z,58.55
2018-07-10T02:38:16.198Z,58.36
2018-07-10T02:38:41.791Z,58.26
2018-07-10T02:39:07.369Z,58.36
2018-07-10T02:39:32.948Z,58.26
2018-07-10T02:39:58.499Z,58.23
2018-07-10T02:40:24.111Z,58.45
2018-07-10T02:40:49.653Z,58.33
2018-07-10T02:41:15.234Z,58.06
2018-07-10T02:41:40.800Z,58.55
2018-07-10T02:42:06.364Z,58.14
2018-07-10T02:42:31.949Z,58.16
2018-07-10T02:42:57.518Z,58.45
2018-07-10T02:43:23.078Z,58.45
2018-07-10T02:43:48.659Z,58.06
2018-07-10T02:44:14.211Z,57.97
2018-07-10T02:44:39.814Z,58.55
2018-07-10T02:45:05.388Z,58.36
2018-07-10T02:45:30.963Z,58.06
2018-07-10T02:45:56.507Z,58.26
2018-07-10T02:46:22.082Z,58.16
2018-07-10T02:46:47.658Z,58.26
2018-07-10T02:47:13.213Z,58.06
2018-07-10T02:47:38.782Z,58.04
2018-07-10T02:48:04.389Z,58.16
2018-07-10T02:48:29.947Z,58.16
2018-07-10T02:48:55.514Z,58.36
2018-07-10T02:49:21.079Z,58.45
2018-07-10T02:49:46.629Z,58.55
2018-07-10T02:50:12.212Z,58.55
2018-07-10T02:50:37.776Z,58.14
2018-07-10T02:51:03.357Z,58.26
2018-07-10T02:51:28.915Z,58.16
2018-07-10T02:51:54.495Z,58.45
2018-07-10T02:52:20.083Z,58.06
2018-07-10T02:52:45.639Z,58.06
2018-07-10T02:53:11.180Z,58.26
2018-07-10T02:53:36.732Z,58.26
2018-07-10T02:54:02.299Z,58.16
2018-07-10T02:54:27.850Z,58.14
2018-07-10T02:54:53.438Z,58.26
2018-07-10T02:55:19.002Z,58.26
2018-07-10T02:55:44.599Z,58.14
2018-07-10T02:56:10.189Z,58.45
2018-07-10T02:56:35.756Z,58.45
2018-07-10T02:57:01.322Z,58.06
2018-07-10T02:57:26.886Z,58.06
2018-07-10T02:57:52.464Z,58.06
2018-07-10T02:58:18.068Z,58.06
2018-07-10T02:58:43.653Z,58.14
2018-07-10T02:59:09.245Z,58.52
2018-07-10T02:59:34.796Z,58.16
2018-07-10T03:00:00.350Z,58.36
2018-07-10T03:00:25.920Z,58.14
2018-07-10T03:00:51.492Z,57.97
2018-07-10T03:01:17.052Z,58.36
2018-07-10T03:01:42.593Z,57.94
2018-07-10T03:02:08.170Z,58.06
2018-07-10T03:02:33.787Z,58.06
2018-07-10T03:02:59.341Z,58.45
2018-07-10T03:03:24.936Z,58.26
2018-07-10T03:03:50.475Z,58.26
2018-07-10T03:04:16.035Z,58.14
2018-07-10T03:04:41.616Z,58.06
2018-07-10T03:05:07.202Z,58.04
2018-07-10T03:05:32.819Z,58.04
2018-07-10T03:05:58.375Z,58.26
2018-07-10T03:06:23.922Z,58.06
2018-07-10T03:06:49.469Z,57.97
2018-07-10T03:07:15.070Z,58.26
2018-07-10T03:07:40.646Z,58.26
2018-07-10T03:08:06.217Z,58.26
2018-07-10T03:08:31.792Z,58.26
2018-07-10T03:08:57.360Z,58.23
2018-07-10T03:09:22.934Z,58.06
2018-07-10T03:09:48.499Z,57.97
2018-07-10T03:10:14.069Z,58.26
2018-07-10T03:10:39.666Z,58.55
2018-07-10T03:11:05.245Z,58.33
2018-07-10T03:11:30.810Z,58.36
2018-07-10T03:11:56.385Z,58.16
2018-07-10T03:12:21.950Z,58.55
2018-07-10T03:12:47.522Z,58.36
2018-07-10T03:13:13.074Z,58.16
2018-07-10T03:13:38.632Z,57.97
2018-07-10T03:14:04.195Z,58.26
2018-07-10T03:14:29.767Z,58.55
2018-07-10T03:14:55.332Z,58.06
2018-07-10T03:15:20.896Z,58.26
2018-07-10T03:15:46.480Z,58.36
2018-07-10T03:16:12.059Z,58.26
2018-07-10T03:16:37.627Z,58.14
2018-07-10T03:17:03.184Z,58.55
2018-07-10T03:17:28.779Z,58.16
2018-07-10T03:17:54.337Z,58.26
2018-07-10T03:18:19.929Z,58.16
2018-07-10T03:18:45.483Z,58.26
2018-07-10T03:19:11.057Z,58.23
2018-07-10T03:19:36.650Z,58.14
2018-07-10T03:20:02.338Z,58.36
2018-07-10T03:20:27.849Z,58.36
2018-07-10T03:20:53.434Z,58.45
2018-07-10T03:21:19.017Z,58.26
2018-07-10T03:21:44.579Z,58.36
2018-07-10T03:22:10.165Z,58.62
2018-07-10T03:22:35.762Z,58.45
2018-07-10T03:23:01.321Z,58.04
2018-07-10T03:23:26.875Z,58.52
2018-07-10T03:23:52.448Z,58.26
2018-07-10T03:24:18.027Z,57.94
2018-07-10T03:24:43.648Z,58.16
2018-07-10T03:25:09.239Z,58.55
2018-07-10T03:25:34.854Z,58.42
2018-07-10T03:26:00.416Z,58.36
2018-07-10T03:26:25.975Z,58.36
2018-07-10T03:26:51.548Z,58.26
2018-07-10T03:27:17.115Z,58.45
2018-07-10T03:27:42.677Z,58.06
2018-07-10T03:28:08.258Z,58.45
2018-07-10T03:28:33.822Z,58.16
2018-07-10T03:28:59.412Z,58.55
2018-07-10T03:29:24.971Z,58.55
2018-07-10T03:29:50.530Z,58.33
2018-07-10T03:30:16.099Z,57.97
2018-07-10T03:30:41.670Z,58.36
2018-07-10T03:31:07.245Z,58.26
2018-07-10T03:31:32.848Z,58.42
2018-07-10T03:31:58.448Z,58.23
2018-07-10T03:32:24.015Z,58.36
2018-07-10T03:32:49.592Z,58.23
2018-07-10T03:33:15.172Z,58.45
2018-07-10T03:33:40.758Z,58.16
2018-07-10T03:34:06.354Z,58.26
2018-07-10T03:34:31.917Z,58.06
2018-07-10T03:34:57.494Z,58.26
2018-07-10T03:35:23.064Z,58.06
2018-07-10T03:35:48.625Z,58.36
2018-07-10T03:36:14.188Z,58.36
2018-07-10T03:36:39.754Z,57.94
2018-07-10T03:37:05.342Z,58.42
2018-07-10T03:37:30.908Z,57.97
2018-07-10T03:37:56.474Z,57.97
2018-07-10T03:38:22.041Z,57.97
2018-07-10T03:38:47.600Z,58.04
2018-07-10T03:39:13.174Z,58.36
2018-07-10T03:39:38.741Z,58.26
2018-07-10T03:40:04.309Z,58.16
2018-07-10T03:40:29.857Z,58.04
2018-07-10T03:40:55.453Z,58.23
2018-07-10T03:41:21.035Z,58.16
2018-07-10T03:41:46.595Z,57.97
2018-07-10T03:42:12.174Z,58.16
2018-07-10T03:42:37.746Z,58.33
2018-07-10T03:43:03.324Z,57.94
2018-07-10T03:43:28.905Z,58.16
2018-07-10T03:43:54.483Z,58.16
2018-07-10T03:44:20.035Z,58.26
2018-07-10T03:44:45.631Z,58.23
2018-07-10T03:45:11.209Z,58.23
2018-07-10T03:45:36.787Z,58.14
2018-07-10T03:46:02.335Z,58.06
2018-07-10T03:46:27.900Z,58.16
2018-07-10T03:46:53.454Z,58.55
2018-07-10T03:47:19.001Z,58.33
2018-07-10T03:47:44.564Z,58.04
2018-07-10T03:48:10.119Z,58.23
2018-07-10T03:48:35.690Z,57.97
2018-07-10T03:49:01.256Z,58.23
2018-07-10T03:49:26.847Z,58.23
2018-07-10T03:49:52.422Z,58.14
2018-07-10T03:50:17.984Z,58.45
2018-07-10T03:50:43.599Z,58.14
2018-07-10T03:51:09.158Z,58.23
2018-07-10T03:51:34.730Z,58.33
2018-07-10T03:52:00.320Z,58.16
2018-07-10T03:52:25.890Z,58.26
2018-07-10T03:52:51.451Z,57.94
2018-07-10T03:53:17.023Z,58.16
2018-07-10T03:53:42.595Z,58.16
2018-07-10T03:54:08.172Z,58.26
2018-07-10T03:54:33.723Z,58.33
2018-07-10T03:54:59.294Z,58.33
2018-07-10T03:55:24.925Z,58.45
2018-07-10T03:55:50.518Z,58.42
2018-07-10T03:56:16.095Z,58.45
2018-07-10T03:56:41.645Z,58.36
2018-07-10T03:57:07.250Z,58.26
2018-07-10T03:57:32.817Z,58.36
2018-07-10T03:57:58.410Z,58.14
2018-07-10T03:58:23.980Z,58.36
2018-07-10T03:58:49.541Z,58.52
2018-07-10T03:59:15.115Z,58.33
2018-07-10T03:59:40.697Z,58.14
2018-07-10T04:00:06.254Z,58.16
2018-07-10T04:00:31.818Z,58.06
2018-07-10T04:00:57.408Z,58.36
2018-07-10T04:01:22.965Z,58.23
2018-07-10T04:01:48.540Z,58.26
2018-07-10T04:02:14.118Z,58.36
2018-07-10T04:02:39.682Z,58.16
2018-07-10T04:03:05.244Z,58.26
2018-07-10T04:03:30.817Z,58.06
2018-07-10T04:03:56.393Z,58.14
2018-07-10T04:04:21.986Z,57.94
2018-07-10T04:04:47.540Z,58.14
2018-07-10T04:05:13.137Z,58.42
2018-07-10T04:05:38.710Z,58.36
2018-07-10T04:06:04.285Z,58.45
2018-07-10T04:06:29.860Z,58.23
2018-07-10T04:06:55.410Z,58.36
2018-07-10T04:07:20.982Z,58.04
2018-07-10T04:07:46.561Z,58.42
2018-07-10T04:08:12.111Z,58.42
2018-07-10T04:08:37.690Z,58.23
2018-07-10T04:09:03.316Z,58.52
2018-07-10T04:09:28.892Z,58.55
2018-07-10T04:09:54.460Z,58.33
2018-07-10T04:10:20.041Z,58.62
2018-07-10T04:10:45.610Z,58.26
2018-07-10T04:11:11.201Z,58.06
2018-07-10T04:11:36.824Z,58.65
2018-07-10T04:12:02.407Z,58.62
2018-07-10T04:12:27.979Z,58.42
2018-07-10T04:12:53.536Z,58.04
2018-07-10T04:13:19.098Z,58.45
2018-07-10T04:13:44.680Z,58.62
2018-07-10T04:14:10.251Z,58.23
2018-07-10T04:14:35.809Z,58.23
2018-07-10T04:15:01.371Z,58.04
2018-07-10T04:15:26.941Z,58.62
2018-07-10T04:15:52.501Z,58.04
2018-07-10T04:16:18.073Z,58.14
2018-07-10T04:16:43.656Z,58.04
2018-07-10T04:17:09.210Z,58.26
2018-07-10T04:17:34.775Z,58.42
2018-07-10T04:18:00.349Z,58.36
2018-07-10T04:18:25.911Z,58.33
2018-07-10T04:18:51.487Z,58.42
2018-07-10T04:19:17.054Z,58.62
2018-07-10T04:19:42.625Z,58.04
2018-07-10T04:20:08.188Z,58.23
2018-07-10T04:20:33.768Z,58.04
2018-07-10T04:20:59.326Z,58.23
2018-07-10T04:21:24.917Z,58.23
2018-07-10T04:21:50.493Z,58.23
2018-07-10T04:22:16.069Z,58.26
2018-07-10T04:22:41.656Z,58.23
2018-07-10T04:23:07.224Z,58.23
2018-07-10T04:23:32.795Z,58.04
2018-07-10T04:23:58.394Z,58.23
2018-07-10T04:24:23.982Z,58.23
2018-07-10T04:24:49.566Z,58.36
2018-07-10T04:25:15.129Z,58.14
2018-07-10T04:25:40.694Z,58.23
2018-07-10T04:26:06.293Z,58.62
2018-07-10T04:26:31.850Z,58.14
2018-07-10T04:26:57.394Z,58.33
2018-07-10T04:27:23.006Z,58.04
2018-07-10T04:27:48.527Z,58.42
2018-07-10T04:28:14.092Z,58.04
2018-07-10T04:28:39.662Z,58.23
2018-07-10T04:29:05.219Z,58.52
2018-07-10T04:29:30.796Z,58.23
2018-07-10T04:29:56.386Z,58.42
2018-07-10T04:30:21.978Z,58.16
2018-07-10T04:30:47.536Z,58.23
2018-07-10T04:31:13.100Z,58.23
2018-07-10T04:31:38.678Z,58.23
2018-07-10T04:32:04.264Z,58.23
2018-07-10T04:32:29.844Z,58.52
2018-07-10T04:32:55.405Z,58.23
2018-07-10T04:33:20.995Z,58.23
2018-07-10T04:33:46.580Z,58.42
2018-07-10T04:34:12.186Z,58.23
2018-07-10T04:34:37.739Z,58.04
2018-07-10T04:35:03.316Z,58.04
2018-07-10T04:35:28.883Z,58.16
2018-07-10T04:35:54.472Z,58.52
2018-07-10T04:36:20.043Z,58.62
2018-07-10T04:36:45.641Z,58.42
2018-07-10T04:37:11.207Z,58.45
2018-07-10T04:37:36.783Z,58.06
2018-07-10T04:38:02.356Z,58.42
2018-07-10T04:38:27.911Z,58.23
2018-07-10T04:38:53.485Z,58.33
2018-07-10T04:39:19.069Z,58.33
2018-07-10T04:39:44.646Z,58.33
2018-07-10T04:40:10.215Z,58.23
2018-07-10T04:40:35.774Z,58.42
2018-07-10T04:41:01.356Z,58.04
2018-07-10T04:41:26.937Z,58.14
2018-07-10T04:41:52.508Z,58.23
2018-07-10T04:42:18.135Z,58.42
2018-07-10T04:42:43.682Z,58.23
2018-07-10T04:43:09.264Z,58.14
2018-07-10T04:43:34.896Z,58.04
2018-07-10T04:44:00.468Z,58.14
2018-07-10T04:44:26.041Z,58.23
2018-07-10T04:44:51.635Z,58.52
2018-07-10T04:45:17.180Z,58.65
2018-07-10T04:45:42.762Z,58.23
2018-07-10T04:46:08.360Z,58.04
2018-07-10T04:46:33.959Z,58.14
2018-07-10T04:46:59.518Z,58.52
2018-07-10T04:47:25.080Z,58.26
2018-07-10T04:47:50.647Z,57.94
2018-07-10T04:48:16.229Z,58.14
2018-07-10T04:48:41.792Z,58.14
2018-07-10T04:49:07.393Z,58.33
2018-07-10T04:49:32.948Z,58.23
2018-07-10T04:49:58.497Z,58.23
2018-07-10T04:50:24.080Z,58.04
2018-07-10T04:50:49.656Z,58.42
2018-07-10T04:51:15.223Z,58.16
2018-07-10T04:51:40.758Z,58.42
2018-07-10T04:52:06.355Z,58.42
2018-07-10T04:52:31.908Z,58.23
2018-07-10T04:52:57.488Z,58.65
2018-07-10T04:53:23.033Z,58.52
2018-07-10T04:53:48.571Z,58.42
2018-07-10T04:54:14.130Z,58.62
2018-07-10T04:54:39.717Z,58.42
2018-07-10T04:55:05.266Z,58.52
2018-07-10T04:55:30.864Z,58.52
2018-07-10T04:55:56.341Z,58.04
2018-07-10T04:56:21.860Z,58.62
2018-07-10T04:56:47.421Z,58.52
2018-07-10T04:57:13.013Z,58.16
2018-07-10T04:57:38.554Z,58.23
2018-07-10T04:58:04.082Z,58.23
2018-07-10T04:58:29.703Z,58.14
2018-07-10T04:58:55.363Z,58.23
2018-07-10T04:59:20.948Z,58.04
2018-07-10T04:59:46.622Z,58.04
2018-07-10T05:00:12.220Z,58.23
2018-07-10T05:00:37.787Z,58.23
2018-07-10T05:01:03.392Z,58.42
2018-07-10T05:01:28.986Z,58.23
2018-07-10T05:01:54.547Z,58.23
2018-07-10T05:02:20.072Z,58.23
2018-07-10T05:02:45.685Z,58.33
2018-07-10T05:03:11.244Z,58.23
2018-07-10T05:03:36.858Z,58.23
2018-07-10T05:04:02.476Z,58.14
2018-07-10T05:04:28.055Z,58.23
2018-07-10T05:04:53.575Z,58.23
2018-07-10T05:05:19.173Z,58.42
2018-07-10T05:05:44.779Z,58.42
2018-07-10T05:06:10.380Z,58.04
2018-07-10T05:06:35.979Z,58.52
2018-07-10T05:07:01.557Z,58.45
2018-07-10T05:07:27.115Z,58.52
2018-07-10T05:07:52.731Z,58.62
2018-07-10T05:08:18.389Z,58.04
2018-07-10T05:08:43.929Z,58.42
2018-07-10T05:09:09.537Z,58.52
2018-07-10T05:09:35.194Z,58.16
2018-07-10T05:10:00.771Z,58.23
2018-07-10T05:10:26.361Z,58.33
2018-07-10T05:10:51.995Z,58.23
2018-07-10T05:11:17.540Z,58.23
2018-07-10T05:11:43.184Z,58.23
2018-07-10T05:12:08.856Z,58.23
2018-07-10T05:12:34.343Z,58.14
2018-07-10T05:12:59.975Z,58.04
2018-07-10T05:13:25.550Z,58.14
2018-07-10T05:13:51.178Z,58.42
2018-07-10T05:14:16.765Z,58.33
2018-07-10T05:14:42.343Z,58.23
2018-07-10T05:15:07.863Z,58.42
2018-07-10T05:15:33.459Z,58.14
2018-07-10T05:15:59.009Z,58.23
2018-07-10T05:16:24.614Z,58.23
2018-07-10T05:16:50.180Z,58.23
2018-07-10T05:17:15.774Z,58.04
2018-07-10T05:17:41.278Z,58.23
2018-07-10T05:18:06.844Z,58.42
2018-07-10T05:18:32.408Z,58.04
2018-07-10T05:18:57.964Z,58.04
2018-07-10T05:19:23.646Z,58.52
2018-07-10T05:19:49.171Z,58.42
2018-07-10T05:20:14.735Z,58.23
2018-07-10T05:20:40.286Z,58.23
2018-07-10T05:21:05.817Z,58.04
2018-07-10T05:21:31.404Z,58.33
2018-07-10T05:21:56.910Z,58.23
2018-07-10T05:22:22.481Z,58.52
2018-07-10T05:22:48.151Z,58.42
2018-07-10T05:23:13.760Z,58.23
2018-07-10T05:23:39.280Z,58.14
2018-07-10T05:24:04.871Z,58.33
2018-07-10T05:24:30.443Z,58.33
2018-07-10T05:24:55.996Z,58.04
2018-07-10T05:25:21.590Z,58.33
2018-07-10T05:25:47.167Z,58.04
2018-07-10T05:26:12.735Z,58.23
2018-07-10T05:26:38.361Z,58.23
2018-07-10T05:27:03.875Z,58.62
2018-07-10T05:27:29.421Z,58.52
2018-07-10T05:27:55.145Z,58.42
2018-07-10T05:28:20.748Z,58.23
2018-07-10T05:28:46.411Z,58.23
2018-07-10T05:29:11.944Z,58.42